createdAt,value
2019-04-07T00:00:14.752Z,85.443115
2019-04-07T00:00:30.799Z,85.443115
2019-04-07T00:00:46.893Z,85.443115
2019-04-07T00:01:02.864Z,85.644531
2019-04-07T00:01:18.868Z,85.644531
2019-04-07T00:01:34.919Z,85.546875
2019-04-07T00:01:50.900Z,85.443115
2019-04-07T00:02:06.868Z,85.235596
2019-04-07T00:02:22.913Z,85.235596
2019-04-07T00:02:39.010Z,85.235596
2019-04-07T00:02:55.186Z,85.235596
2019-04-07T00:03:11.065Z,85.339355
2019-04-07T00:03:27.150Z,85.339355
2019-04-07T00:03:43.111Z,85.443115
2019-04-07T00:03:59.154Z,85.339355
2019-04-07T00:04:15.232Z,85.235596
2019-04-07T00:04:31.248Z,85.235596
2019-04-07T00:04:47.160Z,85.546875
2019-04-07T00:05:11.801Z,85.644531
2019-04-07T00:05:26.035Z,85.748291
2019-04-07T00:05:42.028Z,85.546875
2019-04-07T00:05:58.029Z,85.546875
2019-04-07T00:06:13.957Z,85.443115
2019-04-07T00:06:29.989Z,85.339355
2019-04-07T00:06:45.866Z,85.443115
2019-04-07T00:07:01.793Z,85.644531
2019-04-07T00:07:17.838Z,85.644531
2019-04-07T00:07:32.759Z,85.546875
2019-04-07T00:07:47.815Z,85.443115
2019-04-07T00:08:05.033Z,85.443115
2019-04-07T00:08:21.060Z,85.443115
2019-04-07T00:08:37.037Z,85.546875
2019-04-07T00:08:54.006Z,85.644531
2019-04-07T00:09:10.214Z,85.644531
2019-04-07T00:09:26.958Z,85.546875
2019-04-07T00:09:43.015Z,85.644531
2019-04-07T00:10:01.078Z,85.748291
2019-04-07T00:10:18.630Z,85.852051
2019-04-07T00:10:34.985Z,85.748291
2019-04-07T00:10:51.098Z,85.546875
2019-04-07T00:11:08.854Z,85.644531
2019-04-07T00:11:26.087Z,85.748291
2019-04-07T00:11:43.471Z,85.644531
2019-04-07T00:12:00.028Z,85.644531
2019-04-07T00:12:16.847Z,85.687256
2019-04-07T00:12:35.229Z,85.888672
2019-04-07T00:12:56.735Z,85.992432
2019-04-07T00:13:16.623Z,85.687256
2019-04-07T00:13:37.792Z,85.583496
2019-04-07T00:13:58.416Z,85.791016
2019-04-07T00:14:17.476Z,86.096191
2019-04-07T00:14:37.394Z,85.992432
2019-04-07T00:14:54.605Z,85.992432
2019-04-07T00:15:14.856Z,86.096191
2019-04-07T00:15:32.684Z,85.888672
2019-04-07T00:15:49.442Z,85.791016
2019-04-07T00:16:07.833Z,85.687256
2019-04-07T00:16:24.684Z,85.791016
2019-04-07T00:16:43.176Z,85.992432
2019-04-07T00:17:00.122Z,86.096191
2019-04-07T00:17:18.578Z,86.096191
2019-04-07T00:17:36.929Z,85.888672
2019-04-07T00:17:53.718Z,86.096191
2019-04-07T00:18:11.245Z,86.096191
2019-04-07T00:18:30.263Z,86.096191
2019-04-07T00:18:47.677Z,86.096191
2019-04-07T00:19:04.818Z,86.303711
2019-04-07T00:19:21.342Z,86.303711
2019-04-07T00:19:38.359Z,86.199951
2019-04-07T00:19:55.225Z,86.096191
2019-04-07T00:20:13.166Z,86.096191
2019-04-07T00:20:30.285Z,85.992432
2019-04-07T00:20:47.862Z,85.992432
2019-04-07T00:21:04.420Z,85.888672
2019-04-07T00:21:21.438Z,85.791016
2019-04-07T00:21:40.343Z,85.687256
2019-04-07T00:22:00.331Z,85.583496
2019-04-07T00:22:20.422Z,85.992432
2019-04-07T00:22:41.634Z,86.199951
2019-04-07T00:23:01.546Z,86.401367
2019-04-07T00:23:20.631Z,86.303711
2019-04-07T00:23:42.398Z,86.401367
2019-04-07T00:24:03.931Z,86.401367
2019-04-07T00:24:24.091Z,86.303711
2019-04-07T00:24:47.356Z,86.303711
2019-04-07T00:25:11.307Z,86.505127
2019-04-07T00:25:28.191Z,86.401367
2019-04-07T00:25:47.339Z,86.303711
2019-04-07T00:26:10.946Z,86.303711
2019-04-07T00:26:30.558Z,86.199951
2019-04-07T00:26:51.905Z,86.303711
2019-04-07T00:27:12.582Z,86.199951
2019-04-07T00:27:31.393Z,85.992432
2019-04-07T00:27:49.746Z,85.992432
2019-04-07T00:28:09.610Z,86.199951
2019-04-07T00:28:30.648Z,86.303711
2019-04-07T00:28:51.343Z,86.096191
2019-04-07T00:29:09.221Z,85.888672
2019-04-07T00:29:27.067Z,86.199951
2019-04-07T00:29:48.086Z,86.401367
2019-04-07T00:30:07.070Z,86.401367
2019-04-07T00:30:29.794Z,86.199951
2019-04-07T00:30:49.507Z,86.199951
2019-04-07T00:31:11.724Z,86.340332
2019-04-07T00:31:27.138Z,86.547852
2019-04-07T00:31:50.571Z,86.547852
2019-04-07T00:32:10.545Z,86.444092
2019-04-07T00:32:33.257Z,86.138916
2019-04-07T00:32:51.476Z,86.236572
2019-04-07T00:33:12.834Z,86.340332
2019-04-07T00:33:31.545Z,86.340332
2019-04-07T00:33:52.490Z,86.340332
2019-04-07T00:34:10.209Z,86.645508
2019-04-07T00:34:28.246Z,86.547852
2019-04-07T00:34:46.241Z,86.340332
2019-04-07T00:35:03.711Z,86.340332
2019-04-07T00:35:31.378Z,86.340332
2019-04-07T00:35:50.285Z,86.444092
2019-04-07T00:36:07.774Z,86.547852
2019-04-07T00:36:26.018Z,86.547852
2019-04-07T00:36:45.274Z,86.645508
2019-04-07T00:37:05.018Z,86.749268
2019-04-07T00:37:21.232Z,86.547852
2019-04-07T00:37:36.725Z,86.340332
2019-04-07T00:37:52.242Z,86.236572
2019-04-07T00:38:07.823Z,86.138916
2019-04-07T00:38:23.324Z,86.236572
2019-04-07T00:38:38.852Z,86.340332
2019-04-07T00:38:54.445Z,86.444092
2019-04-07T00:39:09.886Z,86.340332
2019-04-07T00:39:26.362Z,86.236572
2019-04-07T00:39:41.743Z,86.340332
2019-04-07T00:39:57.155Z,86.749268
2019-04-07T00:40:12.547Z,86.956787
2019-04-07T00:40:28.868Z,86.853027
2019-04-07T00:40:43.261Z,86.749268
2019-04-07T00:40:59.645Z,86.645508
2019-04-07T00:41:15.033Z,86.853027
2019-04-07T00:41:30.429Z,86.956787
2019-04-07T00:41:45.825Z,86.956787
2019-04-07T00:42:02.245Z,86.853027
2019-04-07T00:42:17.667Z,86.645508
2019-04-07T00:42:33.104Z,86.645508
2019-04-07T00:42:48.468Z,86.547852
2019-04-07T00:43:03.879Z,86.547852
2019-04-07T00:43:19.281Z,86.547852
2019-04-07T00:43:34.661Z,86.645508
2019-04-07T00:43:50.073Z,86.645508
2019-04-07T00:44:05.501Z,86.645508
2019-04-07T00:44:22.920Z,86.547852
2019-04-07T00:44:38.338Z,86.547852
2019-04-07T00:44:53.703Z,86.749268
2019-04-07T00:45:09.149Z,86.749268
2019-04-07T00:45:24.546Z,86.645508
2019-04-07T00:45:40.981Z,86.547852
2019-04-07T00:45:56.384Z,86.547852
2019-04-07T00:46:11.901Z,86.547852
2019-04-07T00:46:27.318Z,86.749268
2019-04-07T00:46:42.698Z,86.853027
2019-04-07T00:46:58.111Z,86.853027
2019-04-07T00:47:13.514Z,86.956787
2019-04-07T00:47:28.976Z,87.158203
2019-04-07T00:47:44.400Z,86.956787
2019-04-07T00:47:59.804Z,86.853027
2019-04-07T00:48:16.202Z,86.749268
2019-04-07T00:48:31.565Z,86.645508
2019-04-07T00:48:47.961Z,86.444092
2019-04-07T00:49:03.366Z,86.645508
2019-04-07T00:49:18.778Z,86.853027
2019-04-07T00:49:35.208Z,86.853027
2019-04-07T00:49:50.607Z,87.060547
2019-04-07T00:50:07.017Z,87.060547
2019-04-07T00:50:22.417Z,87.060547
2019-04-07T00:50:38.830Z,86.956787
2019-04-07T00:50:54.285Z,86.645508
2019-04-07T00:51:10.677Z,86.645508
2019-04-07T00:51:26.081Z,86.749268
2019-04-07T00:51:41.476Z,86.853027
2019-04-07T00:51:57.894Z,86.853027
2019-04-07T00:52:12.318Z,86.749268
2019-04-07T00:52:27.807Z,86.645508
2019-04-07T00:52:43.140Z,86.749268
2019-04-07T00:52:59.543Z,86.645508
2019-04-07T00:53:13.960Z,86.444092
2019-04-07T00:53:29.349Z,86.236572
2019-04-07T00:53:44.806Z,86.547852
2019-04-07T00:54:00.162Z,86.956787
2019-04-07T00:54:15.533Z,87.060547
2019-04-07T00:54:30.964Z,86.956787
2019-04-07T00:54:46.351Z,86.853027
2019-04-07T00:55:01.706Z,86.956787
2019-04-07T00:55:17.123Z,86.993408
2019-04-07T00:55:32.575Z,86.993408
2019-04-07T00:55:47.973Z,86.993408
2019-04-07T00:56:03.351Z,86.993408
2019-04-07T00:56:18.721Z,86.993408
2019-04-07T00:56:34.096Z,87.097168
2019-04-07T00:56:49.542Z,86.993408
2019-04-07T00:57:04.919Z,86.895752
2019-04-07T00:57:20.299Z,86.895752
2019-04-07T00:57:35.774Z,86.993408
2019-04-07T00:57:51.207Z,86.993408
2019-04-07T00:58:06.588Z,86.993408
2019-04-07T00:58:22.010Z,86.791992
2019-04-07T00:58:37.367Z,86.584473
2019-04-07T00:58:52.820Z,86.480713
2019-04-07T00:59:08.274Z,86.480713
2019-04-07T00:59:23.710Z,86.480713
2019-04-07T00:59:39.106Z,86.791992
2019-04-07T00:59:54.504Z,86.993408
2019-04-07T01:00:09.990Z,87.097168
2019-04-07T01:00:27.459Z,87.200928
2019-04-07T01:00:42.858Z,87.200928
2019-04-07T01:00:59.260Z,87.097168
2019-04-07T01:01:14.647Z,87.097168
2019-04-07T01:01:30.049Z,87.200928
2019-04-07T01:01:45.430Z,87.200928
2019-04-07T01:02:00.819Z,87.304688
2019-04-07T01:02:16.206Z,87.408447
2019-04-07T01:02:31.609Z,87.408447
2019-04-07T01:02:46.947Z,87.408447
2019-04-07T01:03:02.363Z,87.408447
2019-04-07T01:03:17.746Z,87.408447
2019-04-07T01:03:33.167Z,87.408447
2019-04-07T01:03:48.551Z,87.304688
2019-04-07T01:04:03.967Z,87.408447
2019-04-07T01:04:19.352Z,87.408447
2019-04-07T01:04:34.729Z,87.506104
2019-04-07T01:04:50.105Z,87.609863
2019-04-07T01:05:05.509Z,87.609863
2019-04-07T01:05:28.283Z,87.506104
2019-04-07T01:05:46.230Z,87.304688
2019-04-07T01:06:01.604Z,87.304688
2019-04-07T01:06:16.987Z,87.304688
2019-04-07T01:06:32.372Z,87.408447
2019-04-07T01:06:47.738Z,87.609863
2019-04-07T01:07:03.113Z,87.713623
2019-04-07T01:07:18.506Z,87.713623
2019-04-07T01:07:33.888Z,87.609863
2019-04-07T01:07:49.278Z,87.506104
2019-04-07T01:08:04.676Z,87.506104
2019-04-07T01:08:21.101Z,87.609863
2019-04-07T01:08:36.542Z,87.713623
2019-04-07T01:08:51.963Z,87.609863
2019-04-07T01:09:07.397Z,87.609863
2019-04-07T01:09:22.766Z,87.609863
2019-04-07T01:09:38.179Z,87.609863
2019-04-07T01:09:53.588Z,87.609863
2019-04-07T01:10:09.158Z,87.506104
2019-04-07T01:10:25.558Z,87.408447
2019-04-07T01:10:40.980Z,87.506104
2019-04-07T01:10:56.363Z,87.506104
2019-04-07T01:11:11.757Z,87.408447
2019-04-07T01:11:27.158Z,87.506104
2019-04-07T01:11:42.535Z,87.609863
2019-04-07T01:11:57.918Z,87.713623
2019-04-07T01:12:13.291Z,87.713623
2019-04-07T01:12:28.661Z,87.713623
2019-04-07T01:12:44.050Z,87.817383
2019-04-07T01:12:59.441Z,87.817383
2019-04-07T01:13:14.821Z,87.817383
2019-04-07T01:13:30.244Z,87.817383
2019-04-07T01:13:45.659Z,87.609863
2019-04-07T01:14:01.081Z,87.506104
2019-04-07T01:14:16.468Z,87.506104
2019-04-07T01:14:31.847Z,87.609863
2019-04-07T01:14:47.247Z,87.609863
2019-04-07T01:15:02.674Z,87.609863
2019-04-07T01:15:18.059Z,87.609863
2019-04-07T01:15:33.469Z,87.506104
2019-04-07T01:15:48.870Z,87.408447
2019-04-07T01:16:04.314Z,87.304688
2019-04-07T01:16:20.230Z,87.304688
2019-04-07T01:16:35.731Z,87.200928
2019-04-07T01:16:51.166Z,87.200928
2019-04-07T01:17:06.567Z,87.097168
2019-04-07T01:17:21.976Z,87.200928
2019-04-07T01:17:37.406Z,87.506104
2019-04-07T01:17:52.794Z,87.713623
2019-04-07T01:18:08.248Z,87.713623
2019-04-07T01:18:25.959Z,87.817383
2019-04-07T01:18:42.004Z,87.817383
2019-04-07T01:18:57.427Z,87.609863
2019-04-07T01:19:12.847Z,87.506104
2019-04-07T01:19:28.308Z,87.713623
2019-04-07T01:19:43.695Z,87.817383
2019-04-07T01:19:59.112Z,87.921143
2019-04-07T01:20:14.513Z,87.921143
2019-04-07T01:20:30.042Z,87.817383
2019-04-07T01:20:52.357Z,87.921143
2019-04-07T01:21:07.738Z,87.957764
2019-04-07T01:21:23.207Z,87.957764
2019-04-07T01:21:38.587Z,87.957764
2019-04-07T01:21:54.013Z,88.061523
2019-04-07T01:22:09.439Z,88.061523
2019-04-07T01:22:24.842Z,88.061523
2019-04-07T01:22:40.258Z,88.165283
2019-04-07T01:22:55.628Z,88.165283
2019-04-07T01:23:11.027Z,88.165283
2019-04-07T01:23:26.426Z,87.957764
2019-04-07T01:23:41.901Z,87.756348
2019-04-07T01:23:57.315Z,87.548828
2019-04-07T01:24:12.724Z,87.548828
2019-04-07T01:24:28.126Z,87.548828
2019-04-07T01:24:43.513Z,87.652588
2019-04-07T01:24:58.919Z,87.756348
2019-04-07T01:25:14.296Z,87.756348
2019-04-07T01:25:29.682Z,87.756348
2019-04-07T01:25:45.070Z,87.957764
2019-04-07T01:26:01.410Z,88.061523
2019-04-07T01:26:16.760Z,88.165283
2019-04-07T01:26:32.186Z,88.165283
2019-04-07T01:26:47.611Z,88.165283
2019-04-07T01:27:03.332Z,88.061523
2019-04-07T01:27:18.659Z,87.756348
2019-04-07T01:27:34.086Z,87.652588
2019-04-07T01:27:49.493Z,87.548828
2019-04-07T01:28:04.874Z,87.548828
2019-04-07T01:28:20.276Z,87.548828
2019-04-07T01:28:35.733Z,87.756348
2019-04-07T01:28:53.561Z,87.957764
2019-04-07T01:29:08.553Z,87.957764
2019-04-07T01:29:24.942Z,88.061523
2019-04-07T01:29:39.309Z,87.957764
2019-04-07T01:29:54.710Z,88.061523
2019-04-07T01:30:10.078Z,88.061523
2019-04-07T01:30:25.518Z,88.061523
2019-04-07T01:30:40.885Z,88.061523
2019-04-07T01:30:57.270Z,88.165283
2019-04-07T01:31:12.670Z,88.061523
2019-04-07T01:31:28.078Z,88.165283
2019-04-07T01:31:43.487Z,88.269043
2019-04-07T01:31:58.834Z,88.269043
2019-04-07T01:32:14.225Z,88.269043
2019-04-07T01:32:29.607Z,88.165283
2019-04-07T01:32:44.991Z,88.165283
2019-04-07T01:33:00.389Z,88.061523
2019-04-07T01:33:15.784Z,88.165283
2019-04-07T01:33:31.789Z,88.269043
2019-04-07T01:33:47.168Z,88.366699
2019-04-07T01:34:02.582Z,88.366699
2019-04-07T01:34:18.980Z,88.366699
2019-04-07T01:34:34.426Z,88.269043
2019-04-07T01:34:49.799Z,88.366699
2019-04-07T01:35:05.228Z,88.470459
2019-04-07T01:35:20.604Z,88.574219
2019-04-07T01:35:46.017Z,88.574219
2019-04-07T01:36:00.252Z,88.574219
2019-04-07T01:36:16.618Z,88.574219
2019-04-07T01:36:32.062Z,88.574219
2019-04-07T01:36:48.498Z,88.616943
2019-04-07T01:37:03.867Z,88.616943
2019-04-07T01:37:19.222Z,88.616943
2019-04-07T01:37:34.594Z,88.616943
2019-04-07T01:37:50.018Z,88.470459
2019-04-07T01:38:05.401Z,88.513184
2019-04-07T01:38:20.779Z,88.513184
2019-04-07T01:38:36.155Z,88.513184
2019-04-07T01:38:51.554Z,88.616943
2019-04-07T01:39:06.963Z,88.720703
2019-04-07T01:39:22.354Z,88.720703
2019-04-07T01:39:37.729Z,88.720703
2019-04-07T01:39:53.113Z,88.616943
2019-04-07T01:40:08.494Z,88.513184
2019-04-07T01:40:23.901Z,88.616943
2019-04-07T01:40:39.436Z,88.720703
2019-04-07T01:40:54.842Z,88.720703
2019-04-07T01:41:10.282Z,88.720703
2019-04-07T01:41:25.777Z,88.720703
2019-04-07T01:41:41.184Z,88.616943
2019-04-07T01:41:56.619Z,88.616943
2019-04-07T01:42:12.015Z,88.513184
2019-04-07T01:42:28.451Z,88.513184
2019-04-07T01:42:43.839Z,88.409424
2019-04-07T01:42:59.265Z,88.513184
2019-04-07T01:43:15.690Z,88.409424
2019-04-07T01:43:32.153Z,88.208008
2019-04-07T01:43:47.605Z,88.208008
2019-04-07T01:44:03.011Z,88.305664
2019-04-07T01:44:18.398Z,88.409424
2019-04-07T01:44:33.790Z,88.409424
2019-04-07T01:44:50.148Z,88.513184
2019-04-07T01:45:05.526Z,88.513184
2019-04-07T01:45:20.952Z,88.513184
2019-04-07T01:45:37.399Z,88.305664
2019-04-07T01:45:52.876Z,88.305664
2019-04-07T01:46:09.255Z,88.513184
2019-04-07T01:46:25.621Z,88.513184
2019-04-07T01:46:40.997Z,88.305664
2019-04-07T01:46:56.381Z,88.305664
2019-04-07T01:47:11.767Z,88.208008
2019-04-07T01:47:27.131Z,88.305664
2019-04-07T01:47:42.550Z,88.409424
2019-04-07T01:47:58.914Z,88.616943
2019-04-07T01:48:14.314Z,88.720703
2019-04-07T01:48:29.701Z,88.720703
2019-04-07T01:48:45.122Z,88.616943
2019-04-07T01:49:01.481Z,88.409424
2019-04-07T01:49:18.836Z,88.513184
2019-04-07T01:49:34.212Z,88.616943
2019-04-07T01:49:50.608Z,88.616943
2019-04-07T01:50:06.006Z,88.513184
2019-04-07T01:50:21.435Z,88.366699
2019-04-07T01:50:36.790Z,88.208008
2019-04-07T01:50:52.188Z,88.061523
2019-04-07T01:51:08.543Z,88.061523
2019-04-07T01:51:24.049Z,88.165283
2019-04-07T01:51:40.465Z,88.165283
2019-04-07T01:51:55.858Z,88.269043
2019-04-07T01:52:11.234Z,88.470459
2019-04-07T01:52:26.691Z,88.574219
2019-04-07T01:52:42.040Z,88.574219
2019-04-07T01:52:57.441Z,88.574219
2019-04-07T01:53:12.973Z,88.574219
2019-04-07T01:53:28.452Z,88.574219
2019-04-07T01:53:44.856Z,88.366699
2019-04-07T01:54:00.318Z,88.165283
2019-04-07T01:54:15.779Z,88.061523
2019-04-07T01:54:31.241Z,88.061523
2019-04-07T01:54:47.654Z,88.269043
2019-04-07T01:55:03.095Z,88.470459
2019-04-07T01:55:18.515Z,88.574219
2019-04-07T01:55:33.966Z,88.574219
2019-04-07T01:55:50.379Z,88.366699
2019-04-07T01:56:05.816Z,88.269043
2019-04-07T01:56:21.257Z,88.269043
2019-04-07T01:56:36.670Z,88.470459
2019-04-07T01:56:52.069Z,88.470459
2019-04-07T01:57:08.570Z,88.470459
2019-04-07T01:57:23.993Z,88.366699
2019-04-07T01:57:39.357Z,88.470459
2019-04-07T01:57:54.820Z,88.574219
2019-04-07T01:58:10.227Z,88.574219
2019-04-07T01:58:25.671Z,88.677979
2019-04-07T01:58:41.056Z,88.574219
2019-04-07T01:58:56.511Z,88.574219
2019-04-07T01:59:14.920Z,88.574219
2019-04-07T01:59:29.378Z,88.574219
2019-04-07T01:59:44.822Z,88.574219
2019-04-07T02:00:01.190Z,88.677979
2019-04-07T02:00:16.628Z,88.470459
2019-04-07T02:00:32.035Z,88.366699
2019-04-07T02:00:49.538Z,88.470459
2019-04-07T02:01:05.918Z,88.677979
2019-04-07T02:01:21.327Z,88.781738
2019-04-07T02:01:36.729Z,88.781738
2019-04-07T02:01:52.126Z,88.781738
2019-04-07T02:02:07.553Z,88.879395
2019-04-07T02:02:23.082Z,88.879395
2019-04-07T02:02:39.549Z,88.879395
2019-04-07T02:02:54.964Z,88.879395
2019-04-07T02:03:10.379Z,88.879395
2019-04-07T02:03:25.868Z,88.879395
2019-04-07T02:03:41.269Z,88.879395
2019-04-07T02:03:56.707Z,88.983154
2019-04-07T02:04:12.127Z,88.983154
2019-04-07T02:04:27.507Z,88.983154
2019-04-07T02:04:42.937Z,89.086914
2019-04-07T02:04:58.372Z,89.086914
2019-04-07T02:05:13.775Z,88.983154
2019-04-07T02:05:29.248Z,88.983154
2019-04-07T02:05:56.105Z,88.879395
2019-04-07T02:06:09.970Z,88.879395
2019-04-07T02:06:24.987Z,88.983154
2019-04-07T02:06:40.374Z,89.129639
2019-04-07T02:06:55.795Z,89.190674
2019-04-07T02:07:11.183Z,89.129639
2019-04-07T02:07:27.644Z,89.129639
2019-04-07T02:07:44.017Z,89.129639
2019-04-07T02:07:59.479Z,89.025879
2019-04-07T02:08:14.872Z,88.720703
2019-04-07T02:08:30.267Z,88.616943
2019-04-07T02:08:45.683Z,88.616943
2019-04-07T02:09:01.103Z,88.720703
2019-04-07T02:09:16.493Z,88.818359
2019-04-07T02:09:31.878Z,88.818359
2019-04-07T02:09:47.306Z,88.616943
2019-04-07T02:10:03.664Z,88.513184
2019-04-07T02:10:19.075Z,88.470459
2019-04-07T02:10:34.501Z,88.720703
2019-04-07T02:10:49.935Z,88.818359
2019-04-07T02:11:05.393Z,88.818359
2019-04-07T02:11:21.464Z,88.818359
2019-04-07T02:11:37.929Z,88.922119
2019-04-07T02:11:53.340Z,89.129639
2019-04-07T02:12:09.766Z,89.331055
2019-04-07T02:12:25.164Z,89.331055
2019-04-07T02:12:40.574Z,89.434814
2019-04-07T02:12:55.985Z,89.538574
2019-04-07T02:13:11.447Z,89.434814
2019-04-07T02:13:26.868Z,89.331055
2019-04-07T02:13:43.257Z,89.434814
2019-04-07T02:13:58.693Z,89.434814
2019-04-07T02:14:14.105Z,89.434814
2019-04-07T02:14:29.500Z,89.434814
2019-04-07T02:14:44.918Z,89.331055
2019-04-07T02:15:00.339Z,89.331055
2019-04-07T02:15:16.727Z,89.233398
2019-04-07T02:15:32.210Z,89.129639
2019-04-07T02:15:47.634Z,89.025879
2019-04-07T02:16:03.135Z,89.129639
2019-04-07T02:16:18.530Z,89.129639
2019-04-07T02:16:34.970Z,89.025879
2019-04-07T02:16:49.341Z,89.025879
2019-04-07T02:17:04.734Z,88.922119
2019-04-07T02:17:20.233Z,88.922119
2019-04-07T02:17:35.595Z,88.818359
2019-04-07T02:17:50.951Z,88.720703
2019-04-07T02:18:06.365Z,88.720703
2019-04-07T02:18:22.831Z,88.720703
2019-04-07T02:18:38.227Z,88.720703
2019-04-07T02:18:53.635Z,88.818359
2019-04-07T02:19:09.024Z,88.922119
2019-04-07T02:19:24.466Z,88.818359
2019-04-07T02:19:39.861Z,88.720703
2019-04-07T02:19:55.283Z,88.616943
2019-04-07T02:20:10.680Z,88.616943
2019-04-07T02:20:26.123Z,88.720703
2019-04-07T02:20:41.586Z,88.513184
2019-04-07T02:20:56.985Z,88.305664
2019-04-07T02:21:12.399Z,88.208008
2019-04-07T02:21:27.773Z,88.305664
2019-04-07T02:21:43.234Z,88.305664
2019-04-07T02:21:58.602Z,88.513184
2019-04-07T02:22:14.045Z,88.616943
2019-04-07T02:22:29.435Z,88.513184
2019-04-07T02:22:44.819Z,88.409424
2019-04-07T02:23:00.241Z,88.305664
2019-04-07T02:23:15.727Z,88.305664
2019-04-07T02:23:32.156Z,88.305664
2019-04-07T02:23:47.617Z,88.208008
2019-04-07T02:24:03.045Z,88.305664
2019-04-07T02:24:18.494Z,88.409424
2019-04-07T02:24:33.884Z,88.305664
2019-04-07T02:24:49.316Z,88.409424
2019-04-07T02:25:04.743Z,88.513184
2019-04-07T02:25:20.153Z,88.409424
2019-04-07T02:25:35.569Z,88.409424
2019-04-07T02:25:50.984Z,88.305664
2019-04-07T02:26:06.399Z,88.409424
2019-04-07T02:26:21.809Z,88.409424
2019-04-07T02:26:37.216Z,88.513184
2019-04-07T02:26:52.617Z,88.513184
2019-04-07T02:27:08.026Z,88.513184
2019-04-07T02:27:23.425Z,88.513184
2019-04-07T02:27:38.841Z,88.409424
2019-04-07T02:27:55.089Z,88.208008
2019-04-07T02:28:10.467Z,88.000488
2019-04-07T02:28:25.836Z,88.000488
2019-04-07T02:28:41.225Z,88.104248
2019-04-07T02:28:56.629Z,88.000488
2019-04-07T02:29:12.052Z,87.792969
2019-04-07T02:29:27.466Z,88.000488
2019-04-07T02:29:42.839Z,88.208008
2019-04-07T02:29:58.244Z,88.208008
2019-04-07T02:30:20.675Z,88.104248
2019-04-07T02:30:45.005Z,87.896729
2019-04-07T02:31:07.311Z,88.104248
2019-04-07T02:31:28.699Z,88.104248
2019-04-07T02:31:51.074Z,88.104248
2019-04-07T02:32:14.394Z,88.305664
2019-04-07T02:32:34.761Z,88.409424
2019-04-07T02:32:59.119Z,88.513184
2019-04-07T02:33:21.477Z,88.720703
2019-04-07T02:33:42.826Z,88.720703
2019-04-07T02:34:04.200Z,88.513184
2019-04-07T02:34:26.662Z,88.616943
2019-04-07T02:34:50.017Z,88.616943
2019-04-07T02:35:13.337Z,88.720703
2019-04-07T02:35:35.624Z,88.720703
2019-04-07T02:36:11.958Z,88.616943
2019-04-07T02:36:28.121Z,88.616943
2019-04-07T02:36:47.601Z,88.720703
2019-04-07T02:37:11.078Z,88.616943
2019-04-07T02:37:32.440Z,88.720703
2019-04-07T02:37:53.773Z,88.616943
2019-04-07T02:38:20.134Z,88.720703
2019-04-07T02:38:43.395Z,88.720703
2019-04-07T02:39:03.783Z,88.818359
2019-04-07T02:39:26.244Z,88.818359
2019-04-07T02:39:47.507Z,88.818359
2019-04-07T02:40:10.845Z,88.720703
2019-04-07T02:40:32.129Z,88.720703
2019-04-07T02:40:52.478Z,88.757324
2019-04-07T02:41:16.835Z,88.659668
2019-04-07T02:41:39.196Z,88.659668
2019-04-07T02:42:01.533Z,88.757324
2019-04-07T02:42:23.969Z,88.861084
2019-04-07T02:42:47.332Z,88.964844
2019-04-07T02:43:09.623Z,88.861084
2019-04-07T02:43:32.007Z,88.964844
2019-04-07T02:43:53.276Z,88.964844
2019-04-07T02:44:14.710Z,89.068604
2019-04-07T02:44:38.128Z,89.172363
2019-04-07T02:44:58.385Z,89.068604
2019-04-07T02:45:20.793Z,89.068604
2019-04-07T02:45:42.161Z,89.068604
2019-04-07T02:46:03.539Z,88.861084
2019-04-07T02:46:24.863Z,88.757324
2019-04-07T02:46:45.250Z,88.659668
2019-04-07T02:47:07.507Z,88.452148
2019-04-07T02:47:28.979Z,88.452148
2019-04-07T02:47:50.257Z,88.452148
2019-04-07T02:48:11.705Z,88.452148
2019-04-07T02:48:33.035Z,88.348389
2019-04-07T02:48:55.458Z,88.452148
2019-04-07T02:49:17.016Z,88.757324
2019-04-07T02:49:38.354Z,88.757324
2019-04-07T02:50:00.735Z,88.861084
2019-04-07T02:50:23.149Z,88.861084
2019-04-07T02:50:44.438Z,88.757324
2019-04-07T02:51:06.824Z,88.659668
2019-04-07T02:51:30.912Z,88.659668
2019-04-07T02:51:53.260Z,88.555908
2019-04-07T02:52:15.563Z,88.452148
2019-04-07T02:52:35.953Z,88.348389
2019-04-07T02:52:58.305Z,88.452148
2019-04-07T02:53:20.627Z,88.452148
2019-04-07T02:53:44.716Z,88.452148
2019-04-07T02:54:07.123Z,88.244629
2019-04-07T02:54:28.467Z,88.348389
2019-04-07T02:54:50.742Z,88.659668
2019-04-07T02:55:12.329Z,88.757324
2019-04-07T02:55:34.584Z,88.757324
2019-04-07T02:55:54.027Z,88.659668
2019-04-07T02:56:14.414Z,88.555908
2019-04-07T02:56:32.806Z,88.452148
2019-04-07T02:56:53.250Z,88.757324
2019-04-07T02:57:13.488Z,88.659668
2019-04-07T02:57:32.958Z,88.555908
2019-04-07T02:57:55.317Z,88.348389
2019-04-07T02:58:14.733Z,88.348389
2019-04-07T02:58:37.089Z,88.659668
2019-04-07T02:58:58.400Z,88.757324
2019-04-07T02:59:20.788Z,88.757324
2019-04-07T02:59:45.269Z,88.800049
2019-04-07T03:00:05.514Z,88.903809
2019-04-07T03:00:28.942Z,88.903809
2019-04-07T03:00:51.325Z,88.800049
2019-04-07T03:01:10.674Z,88.903809
2019-04-07T03:01:34.101Z,88.903809
2019-04-07T03:01:56.479Z,88.903809
2019-04-07T03:02:18.845Z,88.903809
2019-04-07T03:02:38.292Z,88.903809
2019-04-07T03:03:02.590Z,89.007568
2019-04-07T03:03:23.978Z,89.007568
2019-04-07T03:03:47.249Z,89.111328
2019-04-07T03:04:08.584Z,89.111328
2019-04-07T03:04:30.064Z,89.111328
2019-04-07T03:04:50.353Z,89.208984
2019-04-07T03:05:12.777Z,89.111328
2019-04-07T03:05:34.049Z,89.312744
2019-04-07T03:05:55.406Z,89.416504
2019-04-07T03:06:33.739Z,89.416504
2019-04-07T03:06:49.505Z,89.416504
2019-04-07T03:07:10.402Z,89.520264
2019-04-07T03:07:33.756Z,89.660645
2019-04-07T03:07:54.168Z,89.660645
2019-04-07T03:08:16.538Z,89.459229
2019-04-07T03:08:36.794Z,89.355469
2019-04-07T03:08:56.252Z,89.459229
2019-04-07T03:09:19.630Z,89.562988
2019-04-07T03:09:41.022Z,89.562988
2019-04-07T03:10:01.531Z,89.562988
2019-04-07T03:10:21.913Z,89.562988
2019-04-07T03:10:45.212Z,89.459229
2019-04-07T03:11:06.554Z,89.459229
2019-04-07T03:11:28.028Z,89.355469
2019-04-07T03:11:50.262Z,89.251709
2019-04-07T03:12:11.551Z,89.251709
2019-04-07T03:12:30.948Z,89.459229
2019-04-07T03:12:52.302Z,89.355469
2019-04-07T03:13:13.782Z,89.251709
2019-04-07T03:13:36.114Z,89.147949
2019-04-07T03:13:57.551Z,89.147949
2019-04-07T03:14:18.779Z,89.147949
2019-04-07T03:14:38.220Z,89.251709
2019-04-07T03:14:59.600Z,89.355469
2019-04-07T03:15:23.903Z,89.355469
2019-04-07T03:15:45.265Z,89.251709
2019-04-07T03:16:08.618Z,89.251709
2019-04-07T03:16:28.282Z,89.355469
2019-04-07T03:16:48.567Z,89.355469
2019-04-07T03:17:12.899Z,89.355469
2019-04-07T03:17:35.201Z,89.459229